sensor_id;sensor_type;location;lat;lon;timestamp;temperature;humidity
16229;DHT22;8222;51.462;12.630;2022-11-15T00:00:11;8.30;99.90
16229;DHT22;8222;51.462;12.630;2022-11-15T00:02:37;8.30;99.90
16229;DHT22;8222;51.462;12.630;2022-11-15T00:05:05;8.30;99.90
16229;DHT22;8222;51.462;12.630;2022-11-15T00:07:31;8.30;99.90
16229;DHT22;8222;51.462;12.630;2022-11-15T00:09:56;8.40;99.90
16229;DHT22;8222;51.462;12.630;2022-11-15T00:12:22;8.30;99.90
16229;DHT22;8222;51.462;12.630;2022-11-15T00:14:50;8.30;99.90
16229;DHT22;8222;51.462;12.630;2022-11-15T00:17:15;8.30;99.90
16229;DHT22;8222;51.462;12.630;2022-11-15T00:19:41;8.30;99.90
16229;DHT22;8222;51.462;12.630;2022-11-15T00:22:06;8.30;99.90
16229;DHT22;8222;51.462;12.630;2022-11-15T00:24:32;8.30;99.90
16229;DHT22;8222;51.462;12.630;2022-11-15T00:26:58;8.30;99.90
16229;DHT22;8222;51.462;12.630;2022-11-15T00:29:25;8.30;99.90
16229;DHT22;8222;51.462;12.630;2022-11-15T00:31:51;8.30;99.90
16229;DHT22;8222;51.462;12.630;2022-11-15T00:34:17;8.30;99.90
16229;DHT22;8222;51.462;12.630;2022-11-15T00:36:43;8.30;99.90
16229;DHT22;8222;51.462;12.630;2022-11-15T00:39:08;8.70;99.90
16229;DHT22;8222;51.462;12.630;2022-11-15T00:41:34;8.30;99.90
16229;DHT22;8222;51.462;12.630;2022-11-15T00:44:00;8.30;99.90
16229;DHT22;8222;51.462;12.630;2022-11-15T00:46:25;8.30;99.90
16229;DHT22;8222;51.462;12.630;2022-11-15T00:48:51;8.70;99.90
16229;DHT22;8222;51.462;12.630;2022-11-15T00:51:16;8.30;99.90
16229;DHT22;8222;51.462;12.630;2022-11-15T00:53:42;8.40;99.90
16229;DHT22;8222;51.462;12.630;2022-11-15T00:56:08;8.30;99.90
16229;DHT22;8222;51.462;12.630;2022-11-15T00:58:33;8.20;99.90
16229;DHT22;8222;51.462;12.630;2022-11-15T01:01:07;8.20;99.90
16229;DHT22;8222;51.462;12.630;2022-11-15T01:03:51;8.20;99.90
16229;DHT22;8222;51.462;12.630;2022-11-15T01:06:19;8.30;99.90
16229;DHT22;8222;51.462;12.630;2022-11-15T01:08:44;8.20;99.90
16229;DHT22;8222;51.462;12.630;2022-11-15T01:11:12;8.20;99.90
16229;DHT22;8222;51.462;12.630;2022-11-15T01:13:39;8.30;99.90
16229;DHT22;8222;51.462;12.630;2022-11-15T01:18:36;8.30;99.90
16229;DHT22;8222;51.462;12.630;2022-11-15T01:21:06;8.30;99.90
16229;DHT22;8222;51.462;12.630;2022-11-15T01:23:32;8.30;99.90
16229;DHT22;8222;51.462;12.630;2022-11-15T01:25:59;8.40;99.90
16229;DHT22;8222;51.462;12.630;2022-11-15T01:28:25;8.40;99.90
16229;DHT22;8222;51.462;12.630;2022-11-15T01:30:51;8.40;99.90
16229;DHT22;8222;51.462;12.630;2022-11-15T01:33:18;8.90;99.90
16229;DHT22;8222;51.462;12.630;2022-11-15T01:35:44;8.40;99.90
16229;DHT22;8222;51.462;12.630;2022-11-15T01:38:09;8.40;99.90
16229;DHT22;8222;51.462;12.630;2022-11-15T01:40:35;8.40;99.90
16229;DHT22;8222;51.462;12.630;2022-11-15T01:45:56;8.40;99.90
16229;DHT22;8222;51.462;12.630;2022-11-15T01:48:33;8.50;99.90
16229;DHT22;8222;51.462;12.630;2022-11-15T01:51:05;8.60;99.90
16229;DHT22;8222;51.462;12.630;2022-11-15T01:53:34;8.60;99.90
16229;DHT22;8222;51.462;12.630;2022-11-15T01:56:04;8.60;99.90
16229;DHT22;8222;51.462;12.630;2022-11-15T01:58:31;8.60;99.90
16229;DHT22;8222;51.462;12.630;2022-11-15T02:00:57;8.60;99.90
16229;DHT22;8222;51.462;12.630;2022-11-15T02:06:08;8.60;99.90
16229;DHT22;8222;51.462;12.630;2022-11-15T02:08:34;8.60;99.90
16229;DHT22;8222;51.462;12.630;2022-11-15T02:11:00;8.60;99.90
16229;DHT22;8222;51.462;12.630;2022-11-15T02:13:26;8.60;99.90
16229;DHT22;8222;51.462;12.630;2022-11-15T02:16:14;9.40;99.90
16229;DHT22;8222;51.462;12.630;2022-11-15T02:30:42;8.70;99.90
16229;DHT22;8222;51.462;12.630;2022-11-15T02:36:09;8.80;99.90
16229;DHT22;8222;51.462;12.630;2022-11-15T02:39:27;8.70;99.90
16229;DHT22;8222;51.462;12.630;2022-11-15T02:44:16;8.80;99.90
16229;DHT22;8222;51.462;12.630;2022-11-15T02:46:58;8.90;99.90
16229;DHT22;8222;51.462;12.630;2022-11-15T02:49:49;8.90;99.90
16229;DHT22;8222;51.462;12.630;2022-11-15T02:52:20;8.90;99.90
16229;DHT22;8222;51.462;12.630;2022-11-15T02:54:57;8.90;99.90
16229;DHT22;8222;51.462;12.630;2022-11-15T02:57:45;8.90;99.90
16229;DHT22;8222;51.462;12.630;2022-11-15T03:00:20;9.10;99.90
16229;DHT22;8222;51.462;12.630;2022-11-15T03:06:01;8.90;99.90
16229;DHT22;8222;51.462;12.630;2022-11-15T03:08:32;8.90;99.90
16229;DHT22;8222;51.462;12.630;2022-11-15T03:11:14;8.80;99.90
16229;DHT22;8222;51.462;12.630;2022-11-15T03:16:57;8.90;99.90
16229;DHT22;8222;51.462;12.630;2022-11-15T03:19:50;8.90;99.90
16229;DHT22;8222;51.462;12.630;2022-11-15T03:22:20;8.90;99.90
16229;DHT22;8222;51.462;12.630;2022-11-15T03:24:50;8.90;99.90
16229;DHT22;8222;51.462;12.630;2022-11-15T03:27:21;8.80;99.90
16229;DHT22;8222;51.462;12.630;2022-11-15T03:29:52;8.80;99.90
16229;DHT22;8222;51.462;12.630;2022-11-15T03:32:25;8.70;99.90
16229;DHT22;8222;51.462;12.630;2022-11-15T03:35:02;8.60;99.90
16229;DHT22;8222;51.462;12.630;2022-11-15T03:40:04;8.70;99.90
16229;DHT22;8222;51.462;12.630;2022-11-15T03:42:53;8.70;99.90
16229;DHT22;8222;51.462;12.630;2022-11-15T03:45:28;8.80;99.90
16229;DHT22;8222;51.462;12.630;2022-11-15T03:48:12;8.80;99.90
16229;DHT22;8222;51.462;12.630;2022-11-15T03:50:39;8.80;99.90
16229;DHT22;8222;51.462;12.630;2022-11-15T03:53:05;8.80;99.90
16229;DHT22;8222;51.462;12.630;2022-11-15T03:55:32;8.70;99.90
16229;DHT22;8222;51.462;12.630;2022-11-15T03:58:01;8.60;99.90
16229;DHT22;8222;51.462;12.630;2022-11-15T04:00:28;8.60;99.90
16229;DHT22;8222;51.462;12.630;2022-11-15T04:02:54;8.70;99.90
16229;DHT22;8222;51.462;12.630;2022-11-15T04:05:20;8.90;99.90
16229;DHT22;8222;51.462;12.630;2022-11-15T04:07:47;8.70;99.90
16229;DHT22;8222;51.462;12.630;2022-11-15T04:10:13;8.60;99.90
16229;DHT22;8222;51.462;12.630;2022-11-15T04:12:41;8.60;99.90
16229;DHT22;8222;51.462;12.630;2022-11-15T04:15:11;8.80;99.90
16229;DHT22;8222;51.462;12.630;2022-11-15T04:17:43;8.70;99.90
16229;DHT22;8222;51.462;12.630;2022-11-15T04:22:56;8.70;99.90
16229;DHT22;8222;51.462;12.630;2022-11-15T04:25:41;8.60;99.90
16229;DHT22;8222;51.462;12.630;2022-11-15T04:28:07;9.30;99.90
16229;DHT22;8222;51.462;12.630;2022-11-15T04:30:35;8.70;99.90
16229;DHT22;8222;51.462;12.630;2022-11-15T04:33:01;8.60;99.90
16229;DHT22;8222;51.462;12.630;2022-11-15T04:35:27;8.60;99.90
16229;DHT22;8222;51.462;12.630;2022-11-15T04:37:53;8.60;99.90
16229;DHT22;8222;51.462;12.630;2022-11-15T04:40:19;8.60;99.90
16229;DHT22;8222;51.462;12.630;2022-11-15T04:42:44;8.90;99.90
16229;DHT22;8222;51.462;12.630;2022-11-15T04:45:12;8.50;99.90
16229;DHT22;8222;51.462;12.630;2022-11-15T04:47:38;8.50;99.90
16229;DHT22;8222;51.462;12.630;2022-11-15T04:50:04;8.40;99.90
16229;DHT22;8222;51.462;12.630;2022-11-15T04:52:29;8.40;99.90
16229;DHT22;8222;51.462;12.630;2022-11-15T04:54:55;8.30;99.90
16229;DHT22;8222;51.462;12.630;2022-11-15T04:57:21;8.40;99.90
16229;DHT22;8222;51.462;12.630;2022-11-15T04:59:46;8.40;99.90
16229;DHT22;8222;51.462;12.630;2022-11-15T05:02:12;8.40;99.90
16229;DHT22;8222;51.462;12.630;2022-11-15T05:04:39;8.40;99.90
16229;DHT22;8222;51.462;12.630;2022-11-15T05:07:05;8.40;99.90
16229;DHT22;8222;51.462;12.630;2022-11-15T05:09:31;8.40;99.90
16229;DHT22;8222;51.462;12.630;2022-11-15T05:11:56;8.30;99.90
16229;DHT22;8222;51.462;12.630;2022-11-15T05:14:22;8.30;99.90
16229;DHT22;8222;51.462;12.630;2022-11-15T05:16:49;8.40;99.90
16229;DHT22;8222;51.462;12.630;2022-11-15T05:19:15;8.50;99.90
16229;DHT22;8222;51.462;12.630;2022-11-15T05:21:41;8.50;99.90
16229;DHT22;8222;51.462;12.630;2022-11-15T05:24:08;8.60;99.90
16229;DHT22;8222;51.462;12.630;2022-11-15T05:26:34;8.50;99.90
16229;DHT22;8222;51.462;12.630;2022-11-15T05:29:00;8.50;99.90
16229;DHT22;8222;51.462;12.630;2022-11-15T05:31:26;8.50;99.90
16229;DHT22;8222;51.462;12.630;2022-11-15T05:33:53;8.60;99.90
16229;DHT22;8222;51.462;12.630;2022-11-15T05:36:37;8.60;99.90
16229;DHT22;8222;51.462;12.630;2022-11-15T05:39:05;8.50;99.90
16229;DHT22;8222;51.462;12.630;2022-11-15T05:41:38;10.00;99.90
16229;DHT22;8222;51.462;12.630;2022-11-15T05:44:07;8.60;99.90
16229;DHT22;8222;51.462;12.630;2022-11-15T05:46:34;8.60;99.90
16229;DHT22;8222;51.462;12.630;2022-11-15T05:49:01;8.50;99.90
16229;DHT22;8222;51.462;12.630;2022-11-15T05:51:28;8.60;99.90
16229;DHT22;8222;51.462;12.630;2022-11-15T05:53:56;8.60;99.90
16229;DHT22;8222;51.462;12.630;2022-11-15T05:56:25;8.60;99.90
16229;DHT22;8222;51.462;12.630;2022-11-15T05:58:55;8.70;99.90
16229;DHT22;8222;51.462;12.630;2022-11-15T06:01:22;8.70;99.90
16229;DHT22;8222;51.462;12.630;2022-11-15T06:03:48;8.70;99.90
16229;DHT22;8222;51.462;12.630;2022-11-15T06:06:14;8.60;99.90
16229;DHT22;8222;51.462;12.630;2022-11-15T06:08:39;8.60;99.90
16229;DHT22;8222;51.462;12.630;2022-11-15T06:11:06;8.60;99.90
16229;DHT22;8222;51.462;12.630;2022-11-15T06:13:32;8.60;99.90
16229;DHT22;8222;51.462;12.630;2022-11-15T06:16:00;8.60;99.90
16229;DHT22;8222;51.462;12.630;2022-11-15T06:18:26;8.70;99.90
16229;DHT22;8222;51.462;12.630;2022-11-15T06:20:51;8.60;99.90
16229;DHT22;8222;51.462;12.630;2022-11-15T06:23:17;8.60;99.90
16229;DHT22;8222;51.462;12.630;2022-11-15T06:25:45;8.70;99.90
16229;DHT22;8222;51.462;12.630;2022-11-15T06:28:10;8.70;99.90
16229;DHT22;8222;51.462;12.630;2022-11-15T06:30:36;8.60;99.90
16229;DHT22;8222;51.462;12.630;2022-11-15T06:33:04;8.60;99.90
16229;DHT22;8222;51.462;12.630;2022-11-15T06:35:32;8.70;99.90
16229;DHT22;8222;51.462;12.630;2022-11-15T06:38:06;8.80;99.90
16229;DHT22;8222;51.462;12.630;2022-11-15T06:40:36;8.80;99.90
16229;DHT22;8222;51.462;12.630;2022-11-15T06:43:03;8.90;99.90
16229;DHT22;8222;51.462;12.630;2022-11-15T06:45:31;8.90;99.90
16229;DHT22;8222;51.462;12.630;2022-11-15T06:47:57;9.00;99.90
16229;DHT22;8222;51.462;12.630;2022-11-15T06:50:23;8.90;99.90
16229;DHT22;8222;51.462;12.630;2022-11-15T06:52:49;9.00;99.90
16229;DHT22;8222;51.462;12.630;2022-11-15T06:55:15;9.00;99.90
16229;DHT22;8222;51.462;12.630;2022-11-15T06:57:50;9.10;99.90
16229;DHT22;8222;51.462;12.630;2022-11-15T07:00:18;9.00;99.90
16229;DHT22;8222;51.462;12.630;2022-11-15T07:02:44;9.10;99.90
16229;DHT22;8222;51.462;12.630;2022-11-15T07:05:12;9.10;99.90
16229;DHT22;8222;51.462;12.630;2022-11-15T07:07:38;9.30;99.90
16229;DHT22;8222;51.462;12.630;2022-11-15T07:10:06;9.30;99.90
16229;DHT22;8222;51.462;12.630;2022-11-15T07:12:32;9.30;99.90
16229;DHT22;8222;51.462;12.630;2022-11-15T07:14:58;9.40;99.90
16229;DHT22;8222;51.462;12.630;2022-11-15T07:17:23;9.80;99.90
16229;DHT22;8222;51.462;12.630;2022-11-15T07:19:51;9.70;99.90
16229;DHT22;8222;51.462;12.630;2022-11-15T07:22:17;9.70;99.90
16229;DHT22;8222;51.462;12.630;2022-11-15T07:24:42;9.70;99.90
16229;DHT22;8222;51.462;12.630;2022-11-15T07:27:08;9.70;99.90
16229;DHT22;8222;51.462;12.630;2022-11-15T07:29:33;9.90;99.90
16229;DHT22;8222;51.462;12.630;2022-11-15T07:31:59;9.80;99.90
16229;DHT22;8222;51.462;12.630;2022-11-15T07:34:25;10.00;99.90
16229;DHT22;8222;51.462;12.630;2022-11-15T07:36:53;10.20;99.90
16229;DHT22;8222;51.462;12.630;2022-11-15T07:39:18;10.30;99.90
16229;DHT22;8222;51.462;12.630;2022-11-15T07:41:44;10.40;99.90
16229;DHT22;8222;51.462;12.630;2022-11-15T07:44:10;10.50;99.90
16229;DHT22;8222;51.462;12.630;2022-11-15T07:46:37;10.60;99.90
16229;DHT22;8222;51.462;12.630;2022-11-15T07:49:03;10.70;99.90
16229;DHT22;8222;51.462;12.630;2022-11-15T07:51:28;10.80;99.90
16229;DHT22;8222;51.462;12.630;2022-11-15T07:53:54;10.80;99.90
16229;DHT22;8222;51.462;12.630;2022-11-15T07:56:20;10.80;99.90
16229;DHT22;8222;51.462;12.630;2022-11-15T07:58:46;10.90;99.90
16229;DHT22;8222;51.462;12.630;2022-11-15T08:01:15;11.00;99.90
16229;DHT22;8222;51.462;12.630;2022-11-15T08:03:41;11.10;99.90
16229;DHT22;8222;51.462;12.630;2022-11-15T08:06:07;11.10;99.90
16229;DHT22;8222;51.462;12.630;2022-11-15T08:08:32;11.20;99.90
16229;DHT22;8222;51.462;12.630;2022-11-15T08:11:00;11.20;99.90
16229;DHT22;8222;51.462;12.630;2022-11-15T08:13:26;11.20;99.90
16229;DHT22;8222;51.462;12.630;2022-11-15T08:15:52;11.40;99.90
16229;DHT22;8222;51.462;12.630;2022-11-15T08:18:22;11.50;99.90
16229;DHT22;8222;51.462;12.630;2022-11-15T08:20:48;11.60;99.90
16229;DHT22;8222;51.462;12.630;2022-11-15T08:23:13;11.70;99.90
16229;DHT22;8222;51.462;12.630;2022-11-15T08:25:39;11.90;99.90
16229;DHT22;8222;51.462;12.630;2022-11-15T08:28:07;11.90;99.90
16229;DHT22;8222;51.462;12.630;2022-11-15T08:30:37;11.90;99.90
16229;DHT22;8222;51.462;12.630;2022-11-15T08:33:10;12.00;99.90
16229;DHT22;8222;51.462;12.630;2022-11-15T08:35:36;12.10;99.90
16229;DHT22;8222;51.462;12.630;2022-11-15T08:38:02;12.20;99.90
16229;DHT22;8222;51.462;12.630;2022-11-15T08:40:27;12.30;99.90
16229;DHT22;8222;51.462;12.630;2022-11-15T08:42:53;12.30;99.90
16229;DHT22;8222;51.462;12.630;2022-11-15T08:45:19;12.40;99.90
16229;DHT22;8222;51.462;12.630;2022-11-15T08:47:45;12.50;99.90
16229;DHT22;8222;51.462;12.630;2022-11-15T08:50:12;12.60;99.90
16229;DHT22;8222;51.462;12.630;2022-11-15T08:52:38;12.60;99.90
16229;DHT22;8222;51.462;12.630;2022-11-15T08:55:06;12.70;99.90
16229;DHT22;8222;51.462;12.630;2022-11-15T08:57:31;12.90;99.90
16229;DHT22;8222;51.462;12.630;2022-11-15T08:59:57;13.00;99.90
16229;DHT22;8222;51.462;12.630;2022-11-15T09:02:23;13.10;99.90
16229;DHT22;8222;51.462;12.630;2022-11-15T09:04:49;13.20;99.90
16229;DHT22;8222;51.462;12.630;2022-11-15T09:07:15;13.30;99.90
16229;DHT22;8222;51.462;12.630;2022-11-15T09:09:41;13.40;99.90
16229;DHT22;8222;51.462;12.630;2022-11-15T09:12:08;13.50;99.90
16229;DHT22;8222;51.462;12.630;2022-11-15T09:14:34;13.60;99.90
16229;DHT22;8222;51.462;12.630;2022-11-15T09:17:00;13.70;99.90
16229;DHT22;8222;51.462;12.630;2022-11-15T09:19:26;13.70;99.90
16229;DHT22;8222;51.462;12.630;2022-11-15T09:21:51;13.90;99.90
16229;DHT22;8222;51.462;12.630;2022-11-15T09:24:17;13.70;99.90
16229;DHT22;8222;51.462;12.630;2022-11-15T09:26:43;13.90;99.90
16229;DHT22;8222;51.462;12.630;2022-11-15T09:29:09;14.00;99.90
16229;DHT22;8222;51.462;12.630;2022-11-15T09:31:34;14.10;99.90
16229;DHT22;8222;51.462;12.630;2022-11-15T09:34:00;14.10;99.90
16229;DHT22;8222;51.462;12.630;2022-11-15T09:36:26;14.20;99.90
16229;DHT22;8222;51.462;12.630;2022-11-15T09:38:53;14.30;99.90
16229;DHT22;8222;51.462;12.630;2022-11-15T09:41:32;14.40;99.90
16229;DHT22;8222;51.462;12.630;2022-11-15T09:49:40;14.80;99.90
16229;DHT22;8222;51.462;12.630;2022-11-15T09:52:07;14.70;99.90
16229;DHT22;8222;51.462;12.630;2022-11-15T09:54:39;14.70;99.90
16229;DHT22;8222;51.462;12.630;2022-11-15T09:57:37;14.80;99.90
16229;DHT22;8222;51.462;12.630;2022-11-15T10:00:18;14.90;99.90
16229;DHT22;8222;51.462;12.630;2022-11-15T10:05:40;15.30;99.90
16229;DHT22;8222;51.462;12.630;2022-11-15T10:08:28;15.40;99.90
16229;DHT22;8222;51.462;12.630;2022-11-15T10:11:01;15.30;99.90
16229;DHT22;8222;51.462;12.630;2022-11-15T10:13:31;15.40;99.90
16229;DHT22;8222;51.462;12.630;2022-11-15T10:18:57;15.50;99.90
16229;DHT22;8222;51.462;12.630;2022-11-15T10:24:39;15.70;99.90
16229;DHT22;8222;51.462;12.630;2022-11-15T10:27:15;15.70;99.90
16229;DHT22;8222;51.462;12.630;2022-11-15T10:29:48;15.70;99.90
16229;DHT22;8222;51.462;12.630;2022-11-15T10:32:17;15.80;99.90
16229;DHT22;8222;51.462;12.630;2022-11-15T10:34:43;15.80;99.90
16229;DHT22;8222;51.462;12.630;2022-11-15T10:37:09;15.90;99.90
16229;DHT22;8222;51.462;12.630;2022-11-15T10:39:34;16.00;99.90
16229;DHT22;8222;51.462;12.630;2022-11-15T10:42:26;16.00;99.90
16229;DHT22;8222;51.462;12.630;2022-11-15T10:44:53;16.10;99.90
16229;DHT22;8222;51.462;12.630;2022-11-15T10:49:57;16.20;99.90
16229;DHT22;8222;51.462;12.630;2022-11-15T10:52:23;16.30;99.90
16229;DHT22;8222;51.462;12.630;2022-11-15T10:57:26;16.40;99.90
16229;DHT22;8222;51.462;12.630;2022-11-15T11:02:56;16.50;99.90
16229;DHT22;8222;51.462;12.630;2022-11-15T11:05:32;16.70;99.90
16229;DHT22;8222;51.462;12.630;2022-11-15T11:08:25;16.70;99.90
16229;DHT22;8222;51.462;12.630;2022-11-15T11:10:58;16.80;99.90
16229;DHT22;8222;51.462;12.630;2022-11-15T11:13:27;16.80;99.90
16229;DHT22;8222;51.462;12.630;2022-11-15T11:15:56;16.90;99.90
16229;DHT22;8222;51.462;12.630;2022-11-15T11:18:30;16.90;99.90
16229;DHT22;8222;51.462;12.630;2022-11-15T11:21:03;17.00;99.90
16229;DHT22;8222;51.462;12.630;2022-11-15T11:23:47;17.00;99.90
16229;DHT22;8222;51.462;12.630;2022-11-15T11:34:29;17.30;99.90
16229;DHT22;8222;51.462;12.630;2022-11-15T11:48:07;17.40;99.90
16229;DHT22;8222;51.462;12.630;2022-11-15T11:50:37;17.40;99.90
16229;DHT22;8222;51.462;12.630;2022-11-15T11:53:14;17.40;99.90
16229;DHT22;8222;51.462;12.630;2022-11-15T11:55:47;17.40;99.90
16229;DHT22;8222;51.462;12.630;2022-11-15T11:58:36;17.40;99.90
16229;DHT22;8222;51.462;12.630;2022-11-15T12:08:56;17.50;99.90
16229;DHT22;8222;51.462;12.630;2022-11-15T12:14:01;17.60;99.90
16229;DHT22;8222;51.462;12.630;2022-11-15T12:16:30;17.40;99.90
16229;DHT22;8222;51.462;12.630;2022-11-15T12:19:02;17.50;99.90
16229;DHT22;8222;51.462;12.630;2022-11-15T12:21:48;17.50;99.90
16229;DHT22;8222;51.462;12.630;2022-11-15T12:26:54;17.50;99.90
16229;DHT22;8222;51.462;12.630;2022-11-15T12:29:31;17.50;99.90
16229;DHT22;8222;51.462;12.630;2022-11-15T12:31:59;17.50;99.90
16229;DHT22;8222;51.462;12.630;2022-11-15T12:36:55;17.60;99.90
16229;DHT22;8222;51.462;12.630;2022-11-15T12:47:24;17.60;99.90
16229;DHT22;8222;51.462;12.630;2022-11-15T12:49:51;17.60;99.90
16229;DHT22;8222;51.462;12.630;2022-11-15T12:52:17;17.60;99.90
16229;DHT22;8222;51.462;12.630;2022-11-15T12:59:56;17.60;99.90
16229;DHT22;8222;51.462;12.630;2022-11-15T13:02:31;17.40;99.90
16229;DHT22;8222;51.462;12.630;2022-11-15T13:10:33;17.60;99.90
16229;DHT22;8222;51.462;12.630;2022-11-15T13:13:03;17.60;99.90
16229;DHT22;8222;51.462;12.630;2022-11-15T13:17:56;17.70;99.90
16229;DHT22;8222;51.462;12.630;2022-11-15T13:20:32;17.70;99.90
16229;DHT22;8222;51.462;12.630;2022-11-15T13:23:09;17.70;99.90
16229;DHT22;8222;51.462;12.630;2022-11-15T13:28:36;17.70;99.90
16229;DHT22;8222;51.462;12.630;2022-11-15T13:31:19;17.60;99.90
16229;DHT22;8222;51.462;12.630;2022-11-15T13:33:47;17.60;99.90
16229;DHT22;8222;51.462;12.630;2022-11-15T13:36:22;17.70;99.90
16229;DHT22;8222;51.462;12.630;2022-11-15T13:39:06;17.70;99.90
16229;DHT22;8222;51.462;12.630;2022-11-15T13:41:46;17.60;99.90
16229;DHT22;8222;51.462;12.630;2022-11-15T13:44:20;17.60;99.90
16229;DHT22;8222;51.462;12.630;2022-11-15T13:46:46;17.50;99.90
16229;DHT22;8222;51.462;12.630;2022-11-15T13:49:12;17.40;99.90
16229;DHT22;8222;51.462;12.630;2022-11-15T13:51:47;17.40;99.90
16229;DHT22;8222;51.462;12.630;2022-11-15T13:56:42;17.30;99.90
16229;DHT22;8222;51.462;12.630;2022-11-15T13:59:28;17.20;99.90
16229;DHT22;8222;51.462;12.630;2022-11-15T14:01:56;17.30;99.90
16229;DHT22;8222;51.462;12.630;2022-11-15T14:04:24;17.20;99.90
16229;DHT22;8222;51.462;12.630;2022-11-15T14:06:56;17.20;99.90
16229;DHT22;8222;51.462;12.630;2022-11-15T14:09:30;17.20;99.90
16229;DHT22;8222;51.462;12.630;2022-11-15T14:11:58;17.10;99.90
16229;DHT22;8222;51.462;12.630;2022-11-15T14:14:26;17.00;99.90
16229;DHT22;8222;51.462;12.630;2022-11-15T14:16:55;17.00;99.90
16229;DHT22;8222;51.462;12.630;2022-11-15T14:22:19;16.80;99.90
16229;DHT22;8222;51.462;12.630;2022-11-15T14:25:04;16.60;99.90
16229;DHT22;8222;51.462;12.630;2022-11-15T14:27:31;16.40;99.90
16229;DHT22;8222;51.462;12.630;2022-11-15T14:29:57;16.30;99.90
16229;DHT22;8222;51.462;12.630;2022-11-15T14:32:28;16.20;99.90
16229;DHT22;8222;51.462;12.630;2022-11-15T14:35:00;16.10;99.90
16229;DHT22;8222;51.462;12.630;2022-11-15T14:37:27;16.00;99.90
16229;DHT22;8222;51.462;12.630;2022-11-15T14:39:54;16.00;99.90
16229;DHT22;8222;51.462;12.630;2022-11-15T14:42:24;15.90;99.90
16229;DHT22;8222;51.462;12.630;2022-11-15T14:44:51;15.90;99.90
16229;DHT22;8222;51.462;12.630;2022-11-15T14:47:18;15.80;99.90
16229;DHT22;8222;51.462;12.630;2022-11-15T14:49:44;15.70;99.90
16229;DHT22;8222;51.462;12.630;2022-11-15T14:54:49;15.50;99.90
16229;DHT22;8222;51.462;12.630;2022-11-15T14:57:15;15.40;99.90
16229;DHT22;8222;51.462;12.630;2022-11-15T14:59:40;15.30;99.90
16229;DHT22;8222;51.462;12.630;2022-11-15T15:02:20;15.20;99.90
16229;DHT22;8222;51.462;12.630;2022-11-15T15:04:47;15.00;99.90
16229;DHT22;8222;51.462;12.630;2022-11-15T15:07:14;14.90;99.90
16229;DHT22;8222;51.462;12.630;2022-11-15T15:09:41;15.00;99.90
16229;DHT22;8222;51.462;12.630;2022-11-15T15:12:21;14.80;99.90
16229;DHT22;8222;51.462;12.630;2022-11-15T15:14:48;14.80;99.90
16229;DHT22;8222;51.462;12.630;2022-11-15T15:17:15;14.70;99.90
16229;DHT22;8222;51.462;12.630;2022-11-15T15:19:41;14.60;99.90
16229;DHT22;8222;51.462;12.630;2022-11-15T15:22:17;14.60;99.90
16229;DHT22;8222;51.462;12.630;2022-11-15T15:24:43;14.50;99.90
16229;DHT22;8222;51.462;12.630;2022-11-15T15:27:10;14.40;99.90
16229;DHT22;8222;51.462;12.630;2022-11-15T15:29:36;14.40;99.90
16229;DHT22;8222;51.462;12.630;2022-11-15T15:32:02;14.30;99.90
16229;DHT22;8222;51.462;12.630;2022-11-15T15:34:27;14.20;99.90
16229;DHT22;8222;51.462;12.630;2022-11-15T15:39:48;14.10;99.90
16229;DHT22;8222;51.462;12.630;2022-11-15T15:42:16;14.00;99.90
16229;DHT22;8222;51.462;12.630;2022-11-15T15:44:41;14.00;99.90
16229;DHT22;8222;51.462;12.630;2022-11-15T15:47:15;13.80;99.90
16229;DHT22;8222;51.462;12.630;2022-11-15T15:49:41;13.80;99.90
16229;DHT22;8222;51.462;12.630;2022-11-15T15:52:07;13.70;99.90
16229;DHT22;8222;51.462;12.630;2022-11-15T15:54:33;13.60;99.90
16229;DHT22;8222;51.462;12.630;2022-11-15T15:56:58;13.50;99.90
16229;DHT22;8222;51.462;12.630;2022-11-15T15:59:24;13.40;99.90
16229;DHT22;8222;51.462;12.630;2022-11-15T16:01:50;13.40;99.90
16229;DHT22;8222;51.462;12.630;2022-11-15T16:04:15;13.20;99.90
16229;DHT22;8222;51.462;12.630;2022-11-15T16:06:44;13.20;99.90
16229;DHT22;8222;51.462;12.630;2022-11-15T16:09:14;13.10;99.90
16229;DHT22;8222;51.462;12.630;2022-11-15T16:11:41;13.10;99.90
16229;DHT22;8222;51.462;12.630;2022-11-15T16:14:08;13.00;99.90
16229;DHT22;8222;51.462;12.630;2022-11-15T16:16:35;12.80;99.90
16229;DHT22;8222;51.462;12.630;2022-11-15T16:19:03;12.70;99.90
16229;DHT22;8222;51.462;12.630;2022-11-15T16:21:30;12.60;99.90
16229;DHT22;8222;51.462;12.630;2022-11-15T16:23:56;12.60;99.90
16229;DHT22;8222;51.462;12.630;2022-11-15T16:26:25;12.50;99.90
16229;DHT22;8222;51.462;12.630;2022-11-15T16:28:51;12.30;99.90
16229;DHT22;8222;51.462;12.630;2022-11-15T16:31:19;12.30;99.90
16229;DHT22;8222;51.462;12.630;2022-11-15T16:33:47;12.30;99.90
16229;DHT22;8222;51.462;12.630;2022-11-15T16:36:24;12.10;99.90
16229;DHT22;8222;51.462;12.630;2022-11-15T16:38:52;12.10;99.90
16229;DHT22;8222;51.462;12.630;2022-11-15T16:41:18;12.10;99.90
16229;DHT22;8222;51.462;12.630;2022-11-15T16:43:50;12.10;99.90
16229;DHT22;8222;51.462;12.630;2022-11-15T16:46:21;12.00;99.90
16229;DHT22;8222;51.462;12.630;2022-11-15T16:48:47;12.00;99.90
16229;DHT22;8222;51.462;12.630;2022-11-15T16:51:16;11.90;99.90
16229;DHT22;8222;51.462;12.630;2022-11-15T16:53:42;11.90;99.90
16229;DHT22;8222;51.462;12.630;2022-11-15T16:56:27;11.80;99.90
16229;DHT22;8222;51.462;12.630;2022-11-15T16:58:54;11.70;99.90
16229;DHT22;8222;51.462;12.630;2022-11-15T17:01:28;11.60;99.90
16229;DHT22;8222;51.462;12.630;2022-11-15T17:03:54;11.60;99.90
16229;DHT22;8222;51.462;12.630;2022-11-15T17:06:20;11.50;99.90
16229;DHT22;8222;51.462;12.630;2022-11-15T17:08:47;11.40;99.90
16229;DHT22;8222;51.462;12.630;2022-11-15T17:11:18;11.30;99.90
16229;DHT22;8222;51.462;12.630;2022-11-15T17:13:44;11.40;99.90
16229;DHT22;8222;51.462;12.630;2022-11-15T17:16:12;11.30;99.90
16229;DHT22;8222;51.462;12.630;2022-11-15T17:18:38;11.20;99.90
16229;DHT22;8222;51.462;12.630;2022-11-15T17:21:15;11.20;99.90
16229;DHT22;8222;51.462;12.630;2022-11-15T17:23:41;11.10;99.90
16229;DHT22;8222;51.462;12.630;2022-11-15T17:26:09;11.10;99.90
16229;DHT22;8222;51.462;12.630;2022-11-15T17:28:36;11.10;99.90
16229;DHT22;8222;51.462;12.630;2022-11-15T17:31:08;11.00;99.90
16229;DHT22;8222;51.462;12.630;2022-11-15T17:33:35;11.00;99.90
16229;DHT22;8222;51.462;12.630;2022-11-15T17:36:04;11.00;99.90
16229;DHT22;8222;51.462;12.630;2022-11-15T17:38:30;11.00;99.90
16229;DHT22;8222;51.462;12.630;2022-11-15T17:41:14;11.00;99.90
16229;DHT22;8222;51.462;12.630;2022-11-15T17:43:40;10.90;99.90
16229;DHT22;8222;51.462;12.630;2022-11-15T17:46:20;11.00;99.90
16229;DHT22;8222;51.462;12.630;2022-11-15T17:48:46;11.00;99.90
16229;DHT22;8222;51.462;12.630;2022-11-15T17:51:16;10.90;99.90
16229;DHT22;8222;51.462;12.630;2022-11-15T17:53:45;10.80;99.90
16229;DHT22;8222;51.462;12.630;2022-11-15T17:56:21;10.80;99.90
16229;DHT22;8222;51.462;12.630;2022-11-15T17:58:51;10.80;99.90